sensor_id;sensor_type;location;lat;lon;timestamp;P1;durP1;ratioP1;P2;durP2;ratioP2
73550;SDS011;61816;53.582;10.096;2023-05-15T00:00:26;16.27;;;8.85;;
73550;SDS011;61816;53.582;10.096;2023-05-15T00:02:51;19.52;;;8.98;;
73550;SDS011;61816;53.582;10.096;2023-05-15T00:05:17;13.75;;;8.73;;
73550;SDS011;61816;53.582;10.096;2023-05-15T00:07:42;17.80;;;8.90;;
73550;SDS011;61816;53.582;10.096;2023-05-15T00:10:08;13.50;;;8.98;;
73550;SDS011;61816;53.582;10.096;2023-05-15T00:12:33;15.40;;;8.98;;
73550;SDS011;61816;53.582;10.096;2023-05-15T00:14:58;15.90;;;9.70;;
73550;SDS011;61816;53.582;10.096;2023-05-15T00:17:24;20.02;;;11.05;;
73550;SDS011;61816;53.582;10.096;2023-05-15T00:19:50;15.68;;;9.65;;
73550;SDS011;61816;53.582;10.096;2023-05-15T00:22:15;15.55;;;9.63;;
73550;SDS011;61816;53.582;10.096;2023-05-15T00:24:40;19.73;;;9.63;;
73550;SDS011;61816;53.582;10.096;2023-05-15T00:27:06;15.07;;;9.75;;
73550;SDS011;61816;53.582;10.096;2023-05-15T00:29:31;18.90;;;9.77;;
73550;SDS011;61816;53.582;10.096;2023-05-15T00:31:57;15.55;;;8.95;;
73550;SDS011;61816;53.582;10.096;2023-05-15T00:34:23;15.98;;;9.35;;
73550;SDS011;61816;53.582;10.096;2023-05-15T00:36:49;14.32;;;8.70;;
73550;SDS011;61816;53.582;10.096;2023-05-15T00:39:14;16.20;;;9.60;;
73550;SDS011;61816;53.582;10.096;2023-05-15T00:41:40;17.48;;;9.82;;
73550;SDS011;61816;53.582;10.096;2023-05-15T00:44:06;14.27;;;9.40;;
73550;SDS011;61816;53.582;10.096;2023-05-15T00:46:34;18.50;;;9.55;;
73550;SDS011;61816;53.582;10.096;2023-05-15T00:49:00;22.52;;;9.18;;
73550;SDS011;61816;53.582;10.096;2023-05-15T00:51:28;17.33;;;9.43;;
73550;SDS011;61816;53.582;10.096;2023-05-15T00:53:53;15.00;;;9.23;;
73550;SDS011;61816;53.582;10.096;2023-05-15T00:56:20;14.27;;;9.82;;
73550;SDS011;61816;53.582;10.096;2023-05-15T00:58:47;18.55;;;9.57;;
73550;SDS011;61816;53.582;10.096;2023-05-15T01:01:14;18.63;;;9.43;;
73550;SDS011;61816;53.582;10.096;2023-05-15T01:03:41;22.92;;;9.40;;
73550;SDS011;61816;53.582;10.096;2023-05-15T01:06:07;17.23;;;8.98;;
73550;SDS011;61816;53.582;10.096;2023-05-15T01:08:36;19.60;;;10.35;;
73550;SDS011;61816;53.582;10.096;2023-05-15T01:11:10;19.52;;;9.82;;
73550;SDS011;61816;53.582;10.096;2023-05-15T01:13:37;15.48;;;9.13;;
73550;SDS011;61816;53.582;10.096;2023-05-15T01:16:02;21.92;;;9.73;;
73550;SDS011;61816;53.582;10.096;2023-05-15T01:18:28;16.75;;;9.10;;
73550;SDS011;61816;53.582;10.096;2023-05-15T01:32:22;19.13;;;10.57;;
73550;SDS011;61816;53.582;10.096;2023-05-15T01:35:03;17.33;;;10.02;;
73550;SDS011;61816;53.582;10.096;2023-05-15T01:37:39;19.58;;;9.95;;
73550;SDS011;61816;53.582;10.096;2023-05-15T01:40:13;20.50;;;10.38;;
73550;SDS011;61816;53.582;10.096;2023-05-15T01:42:43;18.08;;;9.52;;
73550;SDS011;61816;53.582;10.096;2023-05-15T01:45:25;15.77;;;9.98;;
73550;SDS011;61816;53.582;10.096;2023-05-15T01:47:52;19.30;;;11.52;;
73550;SDS011;61816;53.582;10.096;2023-05-15T01:50:18;17.35;;;10.98;;
73550;SDS011;61816;53.582;10.096;2023-05-15T01:52:52;20.90;;;10.60;;
73550;SDS011;61816;53.582;10.096;2023-05-15T01:55:21;17.90;;;11.38;;
73550;SDS011;61816;53.582;10.096;2023-05-15T01:57:47;23.92;;;10.65;;
73550;SDS011;61816;53.582;10.096;2023-05-15T02:00:15;16.17;;;9.48;;
73550;SDS011;61816;53.582;10.096;2023-05-15T02:02:41;15.90;;;11.18;;
73550;SDS011;61816;53.582;10.096;2023-05-15T02:05:09;19.88;;;10.40;;
73550;SDS011;61816;53.582;10.096;2023-05-15T02:07:35;17.75;;;10.68;;
73550;SDS011;61816;53.582;10.096;2023-05-15T02:10:01;26.65;;;11.32;;
73550;SDS011;61816;53.582;10.096;2023-05-15T02:12:27;15.45;;;10.73;;
73550;SDS011;61816;53.582;10.096;2023-05-15T02:14:55;17.65;;;11.20;;
73550;SDS011;61816;53.582;10.096;2023-05-15T02:17:22;18.65;;;11.32;;
73550;SDS011;61816;53.582;10.096;2023-05-15T02:19:48;16.95;;;11.05;;
73550;SDS011;61816;53.582;10.096;2023-05-15T02:22:14;19.90;;;12.70;;
73550;SDS011;61816;53.582;10.096;2023-05-15T02:24:39;19.30;;;11.35;;
73550;SDS011;61816;53.582;10.096;2023-05-15T02:27:21;19.50;;;12.00;;
73550;SDS011;61816;53.582;10.096;2023-05-15T02:32:30;21.70;;;12.13;;
73550;SDS011;61816;53.582;10.096;2023-05-15T02:37:55;18.58;;;11.32;;
73550;SDS011;61816;53.582;10.096;2023-05-15T02:40:24;18.05;;;11.43;;
73550;SDS011;61816;53.582;10.096;2023-05-15T02:42:52;20.25;;;12.43;;
73550;SDS011;61816;53.582;10.096;2023-05-15T02:45:18;21.08;;;13.10;;
73550;SDS011;61816;53.582;10.096;2023-05-15T02:47:44;18.23;;;12.02;;
73550;SDS011;61816;53.582;10.096;2023-05-15T02:50:10;21.48;;;13.90;;
73550;SDS011;61816;53.582;10.096;2023-05-15T02:52:36;18.45;;;11.85;;
73550;SDS011;61816;53.582;10.096;2023-05-15T02:55:01;20.08;;;12.82;;
73550;SDS011;61816;53.582;10.096;2023-05-15T02:57:27;25.42;;;12.50;;
73550;SDS011;61816;53.582;10.096;2023-05-15T02:59:53;19.08;;;13.07;;
73550;SDS011;61816;53.582;10.096;2023-05-15T03:02:19;22.17;;;12.63;;
73550;SDS011;61816;53.582;10.096;2023-05-15T03:04:44;19.30;;;12.57;;
73550;SDS011;61816;53.582;10.096;2023-05-15T03:07:10;19.92;;;12.32;;
73550;SDS011;61816;53.582;10.096;2023-05-15T03:09:35;18.75;;;12.23;;
73550;SDS011;61816;53.582;10.096;2023-05-15T03:12:01;32.80;;;15.13;;
73550;SDS011;61816;53.582;10.096;2023-05-15T03:14:26;19.23;;;12.73;;
73550;SDS011;61816;53.582;10.096;2023-05-15T03:16:51;20.35;;;12.82;;
73550;SDS011;61816;53.582;10.096;2023-05-15T03:19:17;19.65;;;13.60;;
73550;SDS011;61816;53.582;10.096;2023-05-15T03:21:42;24.83;;;15.50;;
73550;SDS011;61816;53.582;10.096;2023-05-15T03:24:08;23.17;;;14.43;;
73550;SDS011;61816;53.582;10.096;2023-05-15T03:26:33;23.35;;;15.18;;
73550;SDS011;61816;53.582;10.096;2023-05-15T03:28:59;20.95;;;12.73;;
73550;SDS011;61816;53.582;10.096;2023-05-15T03:31:26;25.58;;;13.90;;
73550;SDS011;61816;53.582;10.096;2023-05-15T03:33:51;20.25;;;13.25;;
73550;SDS011;61816;53.582;10.096;2023-05-15T03:36:16;23.88;;;14.85;;
73550;SDS011;61816;53.582;10.096;2023-05-15T03:38:42;17.77;;;12.90;;
73550;SDS011;61816;53.582;10.096;2023-05-15T03:41:11;18.77;;;13.05;;
73550;SDS011;61816;53.582;10.096;2023-05-15T03:43:36;21.77;;;14.73;;
73550;SDS011;61816;53.582;10.096;2023-05-15T03:46:02;23.60;;;14.48;;
73550;SDS011;61816;53.582;10.096;2023-05-15T03:48:27;18.67;;;13.57;;
73550;SDS011;61816;53.582;10.096;2023-05-15T03:50:52;23.23;;;14.15;;
73550;SDS011;61816;53.582;10.096;2023-05-15T03:53:18;19.27;;;13.90;;
73550;SDS011;61816;53.582;10.096;2023-05-15T03:55:43;21.83;;;14.15;;
73550;SDS011;61816;53.582;10.096;2023-05-15T03:58:09;19.00;;;14.20;;
73550;SDS011;61816;53.582;10.096;2023-05-15T04:00:34;22.48;;;13.20;;
73550;SDS011;61816;53.582;10.096;2023-05-15T04:03:00;20.85;;;13.07;;
73550;SDS011;61816;53.582;10.096;2023-05-15T04:05:25;24.02;;;14.07;;
73550;SDS011;61816;53.582;10.096;2023-05-15T04:07:51;20.73;;;13.80;;
73550;SDS011;61816;53.582;10.096;2023-05-15T04:10:16;22.00;;;15.90;;
73550;SDS011;61816;53.582;10.096;2023-05-15T04:12:41;23.13;;;14.05;;
73550;SDS011;61816;53.582;10.096;2023-05-15T04:15:14;24.80;;;16.27;;
73550;SDS011;61816;53.582;10.096;2023-05-15T04:17:41;24.75;;;16.23;;
73550;SDS011;61816;53.582;10.096;2023-05-15T04:20:07;23.08;;;15.93;;
73550;SDS011;61816;53.582;10.096;2023-05-15T04:22:33;32.08;;;15.75;;
73550;SDS011;61816;53.582;10.096;2023-05-15T04:24:59;19.33;;;14.10;;
73550;SDS011;61816;53.582;10.096;2023-05-15T04:27:24;25.23;;;15.43;;
73550;SDS011;61816;53.582;10.096;2023-05-15T04:29:50;25.30;;;15.88;;
73550;SDS011;61816;53.582;10.096;2023-05-15T04:32:16;26.58;;;16.33;;
73550;SDS011;61816;53.582;10.096;2023-05-15T04:34:41;24.67;;;17.90;;
73550;SDS011;61816;53.582;10.096;2023-05-15T04:37:06;24.92;;;16.08;;
73550;SDS011;61816;53.582;10.096;2023-05-15T04:39:32;24.30;;;16.92;;
73550;SDS011;61816;53.582;10.096;2023-05-15T04:41:57;25.63;;;16.80;;
73550;SDS011;61816;53.582;10.096;2023-05-15T04:44:22;32.53;;;18.23;;
73550;SDS011;61816;53.582;10.096;2023-05-15T04:46:48;25.38;;;16.42;;
73550;SDS011;61816;53.582;10.096;2023-05-15T04:49:13;29.77;;;18.65;;
73550;SDS011;61816;53.582;10.096;2023-05-15T04:51:38;26.17;;;18.20;;
73550;SDS011;61816;53.582;10.096;2023-05-15T04:54:06;26.30;;;16.50;;
73550;SDS011;61816;53.582;10.096;2023-05-15T04:56:31;27.15;;;17.65;;
73550;SDS011;61816;53.582;10.096;2023-05-15T04:58:57;23.40;;;16.75;;
73550;SDS011;61816;53.582;10.096;2023-05-15T05:01:22;26.13;;;16.65;;
73550;SDS011;61816;53.582;10.096;2023-05-15T05:03:47;29.33;;;17.30;;
73550;SDS011;61816;53.582;10.096;2023-05-15T05:06:13;29.88;;;16.58;;
73550;SDS011;61816;53.582;10.096;2023-05-15T05:08:38;24.58;;;17.17;;
73550;SDS011;61816;53.582;10.096;2023-05-15T05:11:03;27.40;;;16.50;;
73550;SDS011;61816;53.582;10.096;2023-05-15T05:13:28;27.63;;;16.38;;
73550;SDS011;61816;53.582;10.096;2023-05-15T05:15:54;27.35;;;16.42;;
73550;SDS011;61816;53.582;10.096;2023-05-15T05:18:19;26.17;;;14.68;;
73550;SDS011;61816;53.582;10.096;2023-05-15T05:20:45;21.52;;;14.85;;
73550;SDS011;61816;53.582;10.096;2023-05-15T05:23:10;29.05;;;15.10;;
73550;SDS011;61816;53.582;10.096;2023-05-15T05:25:35;21.92;;;14.57;;
73550;SDS011;61816;53.582;10.096;2023-05-15T05:28:00;29.17;;;15.18;;
73550;SDS011;61816;53.582;10.096;2023-05-15T05:30:26;24.00;;;13.40;;
73550;SDS011;61816;53.582;10.096;2023-05-15T05:32:51;19.30;;;14.57;;
73550;SDS011;61816;53.582;10.096;2023-05-15T05:35:16;23.92;;;16.35;;
73550;SDS011;61816;53.582;10.096;2023-05-15T05:37:42;23.50;;;14.50;;
73550;SDS011;61816;53.582;10.096;2023-05-15T05:40:07;24.30;;;14.18;;
73550;SDS011;61816;53.582;10.096;2023-05-15T05:42:33;22.35;;;12.68;;
73550;SDS011;61816;53.582;10.096;2023-05-15T05:44:58;24.00;;;13.20;;
73550;SDS011;61816;53.582;10.096;2023-05-15T05:47:24;31.73;;;14.05;;
73550;SDS011;61816;53.582;10.096;2023-05-15T05:49:49;19.50;;;13.55;;
73550;SDS011;61816;53.582;10.096;2023-05-15T05:52:15;19.10;;;11.85;;
73550;SDS011;61816;53.582;10.096;2023-05-15T05:54:41;15.82;;;10.50;;
73550;SDS011;61816;53.582;10.096;2023-05-15T05:57:07;21.27;;;11.45;;
73550;SDS011;61816;53.582;10.096;2023-05-15T05:59:33;19.67;;;12.05;;
73550;SDS011;61816;53.582;10.096;2023-05-15T06:01:59;18.13;;;11.07;;
73550;SDS011;61816;53.582;10.096;2023-05-15T06:04:24;15.85;;;10.02;;
73550;SDS011;61816;53.582;10.096;2023-05-15T06:06:50;15.27;;;10.02;;
73550;SDS011;61816;53.582;10.096;2023-05-15T06:09:15;16.33;;;10.07;;
73550;SDS011;61816;53.582;10.096;2023-05-15T06:11:40;21.15;;;10.07;;
73550;SDS011;61816;53.582;10.096;2023-05-15T06:14:06;17.10;;;10.20;;
73550;SDS011;61816;53.582;10.096;2023-05-15T06:16:32;16.33;;;10.18;;
73550;SDS011;61816;53.582;10.096;2023-05-15T06:18:57;19.30;;;8.70;;
73550;SDS011;61816;53.582;10.096;2023-05-15T06:21:23;14.40;;;8.50;;
73550;SDS011;61816;53.582;10.096;2023-05-15T06:23:48;18.42;;;9.27;;
73550;SDS011;61816;53.582;10.096;2023-05-15T06:26:14;11.13;;;7.75;;
73550;SDS011;61816;53.582;10.096;2023-05-15T06:28:39;17.35;;;7.70;;
73550;SDS011;61816;53.582;10.096;2023-05-15T06:31:04;13.73;;;6.97;;
73550;SDS011;61816;53.582;10.096;2023-05-15T06:33:30;13.38;;;6.78;;
73550;SDS011;61816;53.582;10.096;2023-05-15T06:35:55;12.98;;;6.93;;
73550;SDS011;61816;53.582;10.096;2023-05-15T06:38:20;14.13;;;7.43;;
73550;SDS011;61816;53.582;10.096;2023-05-15T06:40:46;15.48;;;7.55;;
73550;SDS011;61816;53.582;10.096;2023-05-15T06:43:14;16.58;;;6.85;;
73550;SDS011;61816;53.582;10.096;2023-05-15T06:45:39;13.98;;;6.80;;
73550;SDS011;61816;53.582;10.096;2023-05-15T06:48:05;18.80;;;11.75;;
73550;SDS011;61816;53.582;10.096;2023-05-15T06:50:30;9.38;;;6.22;;
73550;SDS011;61816;53.582;10.096;2023-05-15T06:52:55;7.82;;;4.22;;
73550;SDS011;61816;53.582;10.096;2023-05-15T06:55:21;10.27;;;4.95;;
73550;SDS011;61816;53.582;10.096;2023-05-15T06:57:46;8.05;;;4.32;;
73550;SDS011;61816;53.582;10.096;2023-05-15T07:00:12;14.60;;;5.15;;
73550;SDS011;61816;53.582;10.096;2023-05-15T07:02:38;9.73;;;4.63;;
73550;SDS011;61816;53.582;10.096;2023-05-15T07:05:03;8.13;;;3.63;;
73550;SDS011;61816;53.582;10.096;2023-05-15T07:07:29;12.27;;;4.15;;
73550;SDS011;61816;53.582;10.096;2023-05-15T07:09:54;11.00;;;4.47;;
73550;SDS011;61816;53.582;10.096;2023-05-15T07:12:19;11.52;;;3.50;;
73550;SDS011;61816;53.582;10.096;2023-05-15T07:14:45;8.63;;;4.20;;
73550;SDS011;61816;53.582;10.096;2023-05-15T07:17:10;6.30;;;3.60;;
73550;SDS011;61816;53.582;10.096;2023-05-15T07:19:36;7.50;;;3.70;;
73550;SDS011;61816;53.582;10.096;2023-05-15T07:22:01;7.93;;;3.28;;
73550;SDS011;61816;53.582;10.096;2023-05-15T07:24:26;7.50;;;3.72;;
73550;SDS011;61816;53.582;10.096;2023-05-15T07:26:51;10.95;;;3.50;;
73550;SDS011;61816;53.582;10.096;2023-05-15T07:29:17;7.60;;;3.35;;
73550;SDS011;61816;53.582;10.096;2023-05-15T07:31:42;5.82;;;3.10;;
73550;SDS011;61816;53.582;10.096;2023-05-15T07:34:09;15.20;;;3.30;;
73550;SDS011;61816;53.582;10.096;2023-05-15T07:36:35;5.57;;;3.08;;
73550;SDS011;61816;53.582;10.096;2023-05-15T07:39:00;5.75;;;2.63;;
73550;SDS011;61816;53.582;10.096;2023-05-15T07:41:26;11.43;;;4.82;;
73550;SDS011;61816;53.582;10.096;2023-05-15T07:43:51;9.10;;;3.28;;
73550;SDS011;61816;53.582;10.096;2023-05-15T07:46:16;9.70;;;3.38;;
73550;SDS011;61816;53.582;10.096;2023-05-15T07:48:41;6.43;;;3.22;;
73550;SDS011;61816;53.582;10.096;2023-05-15T07:51:07;8.45;;;3.03;;
73550;SDS011;61816;53.582;10.096;2023-05-15T07:53:32;7.40;;;3.22;;
73550;SDS011;61816;53.582;10.096;2023-05-15T07:55:58;5.93;;;3.15;;
73550;SDS011;61816;53.582;10.096;2023-05-15T07:58:26;11.48;;;3.03;;
73550;SDS011;61816;53.582;10.096;2023-05-15T08:00:52;4.03;;;2.95;;
73550;SDS011;61816;53.582;10.096;2023-05-15T08:03:17;8.70;;;2.85;;
73550;SDS011;61816;53.582;10.096;2023-05-15T08:05:43;9.52;;;4.32;;
73550;SDS011;61816;53.582;10.096;2023-05-15T08:08:08;7.00;;;2.58;;
73550;SDS011;61816;53.582;10.096;2023-05-15T08:10:34;5.85;;;2.63;;
73550;SDS011;61816;53.582;10.096;2023-05-15T08:12:59;5.80;;;2.72;;
73550;SDS011;61816;53.582;10.096;2023-05-15T08:15:24;9.00;;;2.70;;
73550;SDS011;61816;53.582;10.096;2023-05-15T08:17:50;14.02;;;2.67;;
73550;SDS011;61816;53.582;10.096;2023-05-15T08:20:15;6.70;;;2.72;;
73550;SDS011;61816;53.582;10.096;2023-05-15T08:22:40;7.18;;;3.15;;
73550;SDS011;61816;53.582;10.096;2023-05-15T08:25:06;7.45;;;3.00;;
73550;SDS011;61816;53.582;10.096;2023-05-15T08:27:32;7.95;;;2.60;;
73550;SDS011;61816;53.582;10.096;2023-05-15T08:29:58;12.07;;;3.28;;
73550;SDS011;61816;53.582;10.096;2023-05-15T08:32:23;7.63;;;2.78;;
73550;SDS011;61816;53.582;10.096;2023-05-15T08:34:49;7.63;;;2.55;;
73550;SDS011;61816;53.582;10.096;2023-05-15T08:37:15;11.38;;;2.45;;
73550;SDS011;61816;53.582;10.096;2023-05-15T08:39:40;4.82;;;2.42;;
73550;SDS011;61816;53.582;10.096;2023-05-15T08:42:13;8.85;;;2.50;;
73550;SDS011;61816;53.582;10.096;2023-05-15T08:44:47;7.60;;;2.95;;
73550;SDS011;61816;53.582;10.096;2023-05-15T08:47:15;5.85;;;2.65;;
73550;SDS011;61816;53.582;10.096;2023-05-15T08:49:59;7.83;;;2.80;;
73550;SDS011;61816;53.582;10.096;2023-05-15T08:52:31;9.00;;;2.78;;
73550;SDS011;61816;53.582;10.096;2023-05-15T08:54:57;4.47;;;2.42;;
73550;SDS011;61816;53.582;10.096;2023-05-15T08:57:23;11.23;;;2.97;;
73550;SDS011;61816;53.582;10.096;2023-05-15T08:59:50;5.50;;;2.83;;
73550;SDS011;61816;53.582;10.096;2023-05-15T09:02:17;5.32;;;2.63;;
73550;SDS011;61816;53.582;10.096;2023-05-15T09:04:44;7.32;;;2.97;;
73550;SDS011;61816;53.582;10.096;2023-05-15T09:07:09;9.07;;;3.15;;
73550;SDS011;61816;53.582;10.096;2023-05-15T09:09:36;9.43;;;3.42;;
73550;SDS011;61816;53.582;10.096;2023-05-15T09:12:02;12.00;;;4.20;;
73550;SDS011;61816;53.582;10.096;2023-05-15T09:14:28;5.10;;;2.78;;
73550;SDS011;61816;53.582;10.096;2023-05-15T09:16:54;6.20;;;3.00;;
73550;SDS011;61816;53.582;10.096;2023-05-15T09:19:19;8.52;;;2.72;;
73550;SDS011;61816;53.582;10.096;2023-05-15T09:21:46;7.80;;;3.03;;
73550;SDS011;61816;53.582;10.096;2023-05-15T09:24:19;5.20;;;2.38;;
73550;SDS011;61816;53.582;10.096;2023-05-15T09:27:00;4.32;;;2.30;;
73550;SDS011;61816;53.582;10.096;2023-05-15T09:29:28;9.85;;;3.35;;
73550;SDS011;61816;53.582;10.096;2023-05-15T09:31:54;12.70;;;3.10;;
73550;SDS011;61816;53.582;10.096;2023-05-15T09:34:27;11.02;;;2.80;;
73550;SDS011;61816;53.582;10.096;2023-05-15T09:36:57;5.43;;;2.47;;
73550;SDS011;61816;53.582;10.096;2023-05-15T09:39:22;4.68;;;2.22;;
73550;SDS011;61816;53.582;10.096;2023-05-15T09:41:48;7.07;;;2.90;;
73550;SDS011;61816;53.582;10.096;2023-05-15T09:44:17;8.40;;;2.35;;
73550;SDS011;61816;53.582;10.096;2023-05-15T09:46:44;7.13;;;2.60;;
73550;SDS011;61816;53.582;10.096;2023-05-15T09:49:10;15.95;;;2.65;;
73550;SDS011;61816;53.582;10.096;2023-05-15T09:51:36;7.97;;;2.90;;
73550;SDS011;61816;53.582;10.096;2023-05-15T09:54:02;9.65;;;2.25;;
73550;SDS011;61816;53.582;10.096;2023-05-15T09:56:27;5.65;;;2.28;;
73550;SDS011;61816;53.582;10.096;2023-05-15T09:58:57;50.78;;;3.22;;
73550;SDS011;61816;53.582;10.096;2023-05-15T10:01:23;7.63;;;2.65;;
73550;SDS011;61816;53.582;10.096;2023-05-15T10:03:59;9.60;;;2.63;;
73550;SDS011;61816;53.582;10.096;2023-05-15T10:06:25;9.60;;;2.47;;
73550;SDS011;61816;53.582;10.096;2023-05-15T10:08:52;7.50;;;2.50;;
73550;SDS011;61816;53.582;10.096;2023-05-15T10:11:18;4.88;;;2.33;;
73550;SDS011;61816;53.582;10.096;2023-05-15T10:13:46;6.38;;;2.20;;
73550;SDS011;61816;53.582;10.096;2023-05-15T10:16:12;5.35;;;2.63;;
73550;SDS011;61816;53.582;10.096;2023-05-15T10:18:38;15.13;;;5.40;;
73550;SDS011;61816;53.582;10.096;2023-05-15T10:21:05;5.20;;;2.53;;
73550;SDS011;61816;53.582;10.096;2023-05-15T10:23:34;5.38;;;2.60;;
73550;SDS011;61816;53.582;10.096;2023-05-15T10:26:01;4.97;;;2.95;;
73550;SDS011;61816;53.582;10.096;2023-05-15T10:28:32;3.08;;;2.30;;
73550;SDS011;61816;53.582;10.096;2023-05-15T10:31:00;4.60;;;2.20;;
73550;SDS011;61816;53.582;10.096;2023-05-15T10:33:27;8.40;;;2.50;;
73550;SDS011;61816;53.582;10.096;2023-05-15T10:35:54;5.03;;;2.72;;
73550;SDS011;61816;53.582;10.096;2023-05-15T10:38:20;3.88;;;2.80;;
73550;SDS011;61816;53.582;10.096;2023-05-15T10:40:46;14.98;;;3.40;;
73550;SDS011;61816;53.582;10.096;2023-05-15T10:43:13;5.85;;;3.15;;
73550;SDS011;61816;53.582;10.096;2023-05-15T10:45:38;8.75;;;3.00;;
73550;SDS011;61816;53.582;10.096;2023-05-15T10:48:05;3.97;;;2.85;;
73550;SDS011;61816;53.582;10.096;2023-05-15T10:50:32;9.88;;;2.60;;
73550;SDS011;61816;53.582;10.096;2023-05-15T10:52:57;10.75;;;2.60;;
73550;SDS011;61816;53.582;10.096;2023-05-15T10:55:24;8.77;;;2.80;;
73550;SDS011;61816;53.582;10.096;2023-05-15T10:57:49;5.70;;;2.90;;
73550;SDS011;61816;53.582;10.096;2023-05-15T11:05:11;7.18;;;3.05;;
73550;SDS011;61816;53.582;10.096;2023-05-15T11:07:38;4.55;;;2.28;;
73550;SDS011;61816;53.582;10.096;2023-05-15T11:13:01;3.92;;;2.58;;
73550;SDS011;61816;53.582;10.096;2023-05-15T11:15:26;13.13;;;2.60;;
73550;SDS011;61816;53.582;10.096;2023-05-15T11:18:06;6.72;;;4.15;;
73550;SDS011;61816;53.582;10.096;2023-05-15T11:23:13;7.78;;;3.00;;
73550;SDS011;61816;53.582;10.096;2023-05-15T11:25:39;10.05;;;2.83;;
73550;SDS011;61816;53.582;10.096;2023-05-15T11:28:04;3.15;;;2.58;;
73550;SDS011;61816;53.582;10.096;2023-05-15T11:30:38;13.68;;;2.60;;
73550;SDS011;61816;53.582;10.096;2023-05-15T11:33:08;7.30;;;3.13;;
73550;SDS011;61816;53.582;10.096;2023-05-15T11:35:39;7.93;;;2.45;;
73550;SDS011;61816;53.582;10.096;2023-05-15T11:38:25;10.10;;;3.03;;
73550;SDS011;61816;53.582;10.096;2023-05-15T11:40:51;8.90;;;2.92;;
73550;SDS011;61816;53.582;10.096;2023-05-15T11:43:30;3.35;;;2.42;;
73550;SDS011;61816;53.582;10.096;2023-05-15T11:46:06;10.05;;;2.58;;
73550;SDS011;61816;53.582;10.096;2023-05-15T11:48:34;8.35;;;3.03;;
73550;SDS011;61816;53.582;10.096;2023-05-15T11:53:43;5.15;;;3.13;;
73550;SDS011;61816;53.582;10.096;2023-05-15T11:56:15;6.50;;;3.22;;
73550;SDS011;61816;53.582;10.096;2023-05-15T11:58:46;8.70;;;3.53;;
73550;SDS011;61816;53.582;10.096;2023-05-15T12:01:15;6.00;;;2.65;;
73550;SDS011;61816;53.582;10.096;2023-05-15T12:03:41;9.43;;;2.90;;
73550;SDS011;61816;53.582;10.096;2023-05-15T12:06:06;6.97;;;2.78;;
73550;SDS011;61816;53.582;10.096;2023-05-15T12:08:32;6.53;;;2.60;;
73550;SDS011;61816;53.582;10.096;2023-05-15T12:10:59;6.68;;;2.92;;
73550;SDS011;61816;53.582;10.096;2023-05-15T12:13:25;10.48;;;2.88;;
73550;SDS011;61816;53.582;10.096;2023-05-15T12:15:50;6.78;;;2.70;;
73550;SDS011;61816;53.582;10.096;2023-05-15T12:18:16;13.90;;;3.13;;
73550;SDS011;61816;53.582;10.096;2023-05-15T12:20:41;7.70;;;2.90;;
73550;SDS011;61816;53.582;10.096;2023-05-15T12:23:13;7.95;;;3.05;;
73550;SDS011;61816;53.582;10.096;2023-05-15T12:25:40;9.80;;;3.10;;
73550;SDS011;61816;53.582;10.096;2023-05-15T12:28:07;8.38;;;2.90;;
73550;SDS011;61816;53.582;10.096;2023-05-15T12:30:33;8.48;;;3.15;;
73550;SDS011;61816;53.582;10.096;2023-05-15T12:33:03;7.72;;;3.33;;
73550;SDS011;61816;53.582;10.096;2023-05-15T12:35:33;5.10;;;2.80;;
73550;SDS011;61816;53.582;10.096;2023-05-15T12:38:02;7.45;;;3.35;;
73550;SDS011;61816;53.582;10.096;2023-05-15T12:40:31;7.13;;;2.92;;
73550;SDS011;61816;53.582;10.096;2023-05-15T12:42:58;9.80;;;2.92;;
73550;SDS011;61816;53.582;10.096;2023-05-15T12:45:24;7.20;;;2.53;;
73550;SDS011;61816;53.582;10.096;2023-05-15T12:47:50;5.30;;;2.50;;
73550;SDS011;61816;53.582;10.096;2023-05-15T12:50:22;4.18;;;2.67;;
73550;SDS011;61816;53.582;10.096;2023-05-15T12:52:54;4.55;;;2.78;;
73550;SDS011;61816;53.582;10.096;2023-05-15T12:55:22;9.48;;;2.55;;
73550;SDS011;61816;53.582;10.096;2023-05-15T12:57:50;11.10;;;3.10;;
73550;SDS011;61816;53.582;10.096;2023-05-15T13:00:16;5.35;;;2.65;;
73550;SDS011;61816;53.582;10.096;2023-05-15T13:02:44;15.02;;;5.53;;
73550;SDS011;61816;53.582;10.096;2023-05-15T13:05:10;14.52;;;6.57;;
73550;SDS011;61816;53.582;10.096;2023-05-15T13:07:36;11.60;;;5.22;;
73550;SDS011;61816;53.582;10.096;2023-05-15T13:10:05;13.52;;;5.35;;
73550;SDS011;61816;53.582;10.096;2023-05-15T13:12:41;15.63;;;6.45;;
73550;SDS011;61816;53.582;10.096;2023-05-15T13:15:20;15.57;;;8.10;;
73550;SDS011;61816;53.582;10.096;2023-05-15T13:20:29;14.85;;;7.38;;
73550;SDS011;61816;53.582;10.096;2023-05-15T13:22:58;20.52;;;9.20;;
73550;SDS011;61816;53.582;10.096;2023-05-15T13:25:25;25.73;;;10.27;;
73550;SDS011;61816;53.582;10.096;2023-05-15T13:27:50;19.33;;;10.07;;
73550;SDS011;61816;53.582;10.096;2023-05-15T13:30:16;21.48;;;9.05;;
73550;SDS011;61816;53.582;10.096;2023-05-15T13:32:42;17.27;;;9.57;;
73550;SDS011;61816;53.582;10.096;2023-05-15T13:35:08;19.92;;;10.68;;
73550;SDS011;61816;53.582;10.096;2023-05-15T13:37:34;31.38;;;12.82;;
73550;SDS011;61816;53.582;10.096;2023-05-15T13:40:00;16.70;;;9.90;;
73550;SDS011;61816;53.582;10.096;2023-05-15T13:42:25;23.63;;;9.63;;
73550;SDS011;61816;53.582;10.096;2023-05-15T13:44:51;12.00;;;7.32;;
73550;SDS011;61816;53.582;10.096;2023-05-15T13:47:16;14.88;;;7.93;;
73550;SDS011;61816;53.582;10.096;2023-05-15T13:49:41;14.10;;;7.55;;
73550;SDS011;61816;53.582;10.096;2023-05-15T13:52:07;18.95;;;8.38;;
73550;SDS011;61816;53.582;10.096;2023-05-15T13:54:32;21.65;;;10.77;;
73550;SDS011;61816;53.582;10.096;2023-05-15T13:56:58;18.67;;;8.93;;
73550;SDS011;61816;53.582;10.096;2023-05-15T13:59:24;16.92;;;10.93;;
73550;SDS011;61816;53.582;10.096;2023-05-15T14:01:49;21.10;;;11.20;;
73550;SDS011;61816;53.582;10.096;2023-05-15T14:04:15;27.48;;;14.13;;
73550;SDS011;61816;53.582;10.096;2023-05-15T14:06:40;17.00;;;10.55;;
73550;SDS011;61816;53.582;10.096;2023-05-15T14:09:06;29.02;;;12.18;;
73550;SDS011;61816;53.582;10.096;2023-05-15T14:11:31;24.42;;;12.70;;
73550;SDS011;61816;53.582;10.096;2023-05-15T14:13:57;34.17;;;11.65;;
73550;SDS011;61816;53.582;10.096;2023-05-15T14:16:22;19.25;;;12.77;;
73550;SDS011;61816;53.582;10.096;2023-05-15T14:18:48;29.52;;;12.48;;
73550;SDS011;61816;53.582;10.096;2023-05-15T14:21:13;20.67;;;13.27;;
73550;SDS011;61816;53.582;10.096;2023-05-15T14:23:38;30.65;;;12.13;;
73550;SDS011;61816;53.582;10.096;2023-05-15T14:26:04;18.67;;;11.48;;
73550;SDS011;61816;53.582;10.096;2023-05-15T14:28:29;22.33;;;11.80;;
73550;SDS011;61816;53.582;10.096;2023-05-15T14:30:54;21.27;;;14.27;;
73550;SDS011;61816;53.582;10.096;2023-05-15T14:33:20;24.67;;;14.35;;
73550;SDS011;61816;53.582;10.096;2023-05-15T14:35:45;23.55;;;14.30;;
73550;SDS011;61816;53.582;10.096;2023-05-15T14:38:11;25.50;;;14.13;;
73550;SDS011;61816;53.582;10.096;2023-05-15T14:40:36;23.15;;;13.25;;
73550;SDS011;61816;53.582;10.096;2023-05-15T14:43:01;28.88;;;14.48;;
73550;SDS011;61816;53.582;10.096;2023-05-15T14:45:27;22.17;;;12.80;;
73550;SDS011;61816;53.582;10.096;2023-05-15T14:47:52;25.05;;;13.55;;
73550;SDS011;61816;53.582;10.096;2023-05-15T14:50:18;19.35;;;12.00;;